Time;durP1;ratioP1;P1;durP2;ratioP2;P2;SDS_P1;SDS_P2;PMS_P1;PMS_P2;Temp;Humidity;BMP_temperature;BMP_pressure;BME280_temperature;BME280_humidity;BME280_pressure;Samples;Min_cycle;Max_cycle;Signal;HPM_P1;HPM_P2
2022/06/06 00:02:10;;;;;;;4.95;3.67;;;;;;;14.62;100.00;100816.13;1640682;87;21077;-85
2022/06/06 00:04:37;;;;;;;5.08;3.80;;;;;;;14.61;100.00;100820.21;1640514;87;21022;-85
2022/06/06 00:07:05;;;;;;;4.42;3.60;;;;;;;14.58;100.00;100819.16;1640691;87;21066;-84
2022/06/06 00:09:34;;;;;;;4.22;3.55;;;;;;;14.57;100.00;100827.98;1640431;87;21003;-84
2022/06/06 00:12:04;;;;;;;5.42;3.72;;;;;;;14.55;100.00;100824.20;1640473;87;21137;-84
2022/06/06 00:14:31;;;;;;;3.80;3.50;;;;;;;14.51;100.00;100822.80;1640517;87;21034;-86
2022/06/06 00:16:59;;;;;;;7.78;3.85;;;;;;;14.50;100.00;100821.17;1640596;87;21054;-88
2022/06/06 00:19:26;;;;;;;5.83;3.50;;;;;;;14.46;100.00;100811.41;1640673;87;21118;-88
2022/06/06 00:21:54;;;;;;;6.17;3.72;;;;;;;14.44;100.00;100819.06;1640556;87;21059;-88
2022/06/06 00:24:21;;;;;;;7.28;3.55;;;;;;;14.40;100.00;100816.39;1640475;87;22060;-85
2022/06/06 00:26:49;;;;;;;4.40;2.95;;;;;;;14.36;100.00;100811.91;1640402;87;21042;-85
2022/06/06 00:29:20;;;;;;;4.35;3.67;;;;;;;14.30;100.00;100813.77;1640387;87;21062;-84
2022/06/06 00:37:31;;;;;;;5.20;3.62;;;;;;;14.21;100.00;100819.30;1640699;87;21241;-85
2022/06/06 00:40:00;;;;;;;5.35;3.40;;;;;;;14.20;100.00;100821.57;1636963;87;21019;-85
2022/06/06 00:42:31;;;;;;;3.72;3.37;;;;;;;14.19;100.00;100823.84;1640520;87;21075;-85
2022/06/06 00:45:25;;;;;;;4.95;3.87;;;;;;;14.17;100.00;100818.75;1640941;87;21537;-88
2022/06/06 00:48:03;;;;;;;4.47;3.58;;;;;;;14.14;100.00;100819.50;1640562;86;21089;-84
2022/06/06 00:51:00;;;;;;;5.00;3.65;;;;;;;14.09;100.00;100823.82;1641533;87;21064;-84
2022/06/06 00:53:41;;;;;;;4.75;3.62;;;;;;;13.99;100.00;100822.95;1640454;87;21620;-85
2022/06/06 00:56:26;;;;;;;3.95;3.55;;;;;;;13.93;100.00;100824.80;1640868;87;21035;-85
2022/06/06 00:58:58;;;;;;;4.87;3.33;;;;;;;13.88;100.00;100835.66;1602122;89;21077;-85
2022/06/06 01:01:26;;;;;;;4.47;4.08;;;;;;;13.81;100.00;100835.38;1599684;89;21142;-85
2022/06/06 01:03:58;;;;;;;4.92;3.80;;;;;;;13.79;100.00;100837.75;1602226;89;21171;-89
2022/06/06 01:06:29;;;;;;;5.37;3.65;;;;;;;13.73;100.00;100844.36;1602596;89;21039;-85
2022/06/06 01:08:58;;;;;;;5.40;3.58;;;;;;;13.68;100.00;100840.83;1602750;89;21098;-84
2022/06/06 01:11:26;;;;;;;4.53;4.10;;;;;;;13.66;100.00;100839.30;1602331;89;21385;-84
2022/06/06 01:13:56;;;;;;;3.92;3.62;;;;;;;13.65;100.00;100836.33;1600505;89;21066;-84
2022/06/06 01:16:40;;;;;;;;;;;;;;;13.66;100.00;100841.92;1569572;88;21823;-85
2022/06/06 01:19:43;;;;;;;4.15;3.77;;;;;;;13.62;100.00;100845.24;1598439;89;20181;-85
2022/06/06 01:23:03;;;;;;;3.80;3.37;;;;;;;13.57;100.00;100843.51;1598116;89;21111;-85
2022/06/06 01:25:58;;;;;;;4.22;3.83;;;;;;;13.50;100.00;100844.48;1600041;88;21492;-84
2022/06/06 01:28:48;;;;;;;3.80;3.50;;;;;;;13.47;100.00;100846.54;1600340;89;21140;-84
2022/06/06 01:31:29;;;;;;;7.20;4.47;;;;;;;13.44;100.00;100851.55;1562906;91;22985;-85
2022/06/06 01:33:59;;;;;;;4.80;4.30;;;;;;;13.37;100.00;100850.37;1591936;89;21072;-85
2022/06/06 01:36:30;;;;;;;4.62;4.00;;;;;;;13.33;100.00;100862.06;1600199;88;21395;-88
2022/06/06 01:39:01;;;;;;;4.35;3.95;;;;;;;13.29;100.00;100850.19;1609109;87;21115;-85
2022/06/06 01:41:40;;;;;;;;;;;;;;;13.25;100.00;100854.37;1619104;88;21130;-85
2022/06/06 01:44:31;;;;;;;5.37;4.10;;;;;;;13.23;100.00;100848.44;1619205;88;21156;-84
2022/06/06 01:47:00;;;;;;;4.50;4.10;;;;;;;13.20;100.00;100853.91;1612252;88;21537;-85
2022/06/06 01:49:29;;;;;;;5.87;4.25;;;;;;;13.19;100.00;100860.09;1618672;88;21530;-85
2022/06/06 01:52:02;;;;;;;4.33;3.92;;;;;;;13.18;100.00;100862.84;1618781;88;21087;-85
2022/06/06 01:54:30;;;;;;;5.42;4.20;;;;;;;13.17;100.00;100867.72;1577124;90;21072;-85
2022/06/06 01:56:59;;;;;;;4.25;3.80;;;;;;;13.15;100.00;100868.31;1575529;89;21168;-85
2022/06/06 01:59:27;;;;;;;6.67;4.22;;;;;;;13.15;100.00;100866.55;1575668;89;21154;-84
2022/06/06 02:01:54;;;;;;;4.35;3.95;;;;;;;13.15;100.00;100866.55;1575228;89;21082;-85
2022/06/06 02:04:22;;;;;;;4.60;4.12;;;;;;;13.14;100.00;100869.30;1575226;89;21168;-84
2022/06/06 02:06:49;;;;;;;4.83;4.12;;;;;;;13.12;100.00;100866.78;1575261;91;21687;-85
2022/06/06 02:09:16;;;;;;;4.83;4.42;;;;;;;13.13;100.00;100867.63;1575202;89;21319;-84
2022/06/06 02:11:44;;;;;;;4.30;3.98;;;;;;;13.13;100.00;100865.83;1575774;89;21103;-85
2022/06/06 02:14:11;;;;;;;4.87;4.40;;;;;;;13.16;100.00;100870.83;1575295;89;21155;-85
2022/06/06 02:16:39;;;;;;;5.85;4.45;;;;;;;13.18;100.00;100871.50;1606292;87;21064;-85
2022/06/06 02:19:07;;;;;;;5.35;4.47;;;;;;;13.19;100.00;100867.13;1606738;88;21104;-85
2022/06/06 02:21:35;;;;;;;5.20;4.70;;;;;;;13.21;100.00;100879.59;1618820;88;21811;-89
2022/06/06 02:24:03;;;;;;;7.00;4.42;;;;;;;13.23;100.00;100877.66;1602532;88;21132;-89
2022/06/06 02:26:30;;;;;;;5.58;4.95;;;;;;;13.24;100.00;100873.64;1618925;88;21630;-85
2022/06/06 02:28:58;;;;;;;6.03;4.97;;;;;;;13.30;100.00;100885.84;1602758;88;21029;-85
2022/06/06 02:31:25;;;;;;;4.60;4.15;;;;;;;13.35;100.00;100891.52;1618965;87;21073;-85
2022/06/06 02:33:52;;;;;;;5.50;4.80;;;;;;;13.41;100.00;100893.68;1602755;88;21252;-84
2022/06/06 02:36:19;;;;;;;4.62;4.05;;;;;;;13.47;100.00;100889.70;1619193;88;21068;-86
2022/06/06 02:38:47;;;;;;;4.87;4.12;;;;;;;13.52;100.00;100894.91;1602664;89;21037;-85
2022/06/06 02:41:14;;;;;;;5.75;4.37;;;;;;;13.59;100.00;100895.70;1618508;87;21081;-84
2022/06/06 02:43:43;;;;;;;4.78;4.28;;;;;;;13.67;100.00;100893.27;1602432;88;21033;-85
2022/06/06 02:46:13;;;;;;;5.65;4.30;;;;;;;13.74;100.00;100891.79;1618597;88;21151;-85
2022/06/06 02:48:40;;;;;;;5.20;4.70;;;;;;;13.80;100.00;100896.99;1602693;88;21017;-84
2022/06/06 02:51:07;;;;;;;5.58;4.22;;;;;;;13.86;100.00;100892.08;1618398;87;21031;-85
2022/06/06 02:53:35;;;;;;;4.80;4.40;;;;;;;13.95;100.00;100892.25;1603169;89;21603;-85
2022/06/06 02:56:04;;;;;;;6.80;4.60;;;;;;;14.03;100.00;100895.05;1618699;87;21156;-85
2022/06/06 02:58:31;;;;;;;9.43;4.53;;;;;;;14.12;100.00;100895.58;1602824;88;21189;-85
2022/06/06 03:01:08;;;;;;;5.95;4.75;;;;;;;14.18;100.00;100887.19;1618695;88;21046;-84
2022/06/06 03:03:38;;;;;;;7.25;4.72;;;;;;;14.28;100.00;100899.49;1591854;90;21148;-85
2022/06/06 03:06:18;;;;;;;8.08;4.75;;;;;;;14.37;100.00;100897.39;1619065;87;21050;-84
2022/06/06 03:09:31;;;;;;;5.20;4.67;;;;;;;14.46;100.00;100897.87;1597359;88;21853;-85
2022/06/06 03:12:19;;;;;;;6.80;4.42;;;;;;;14.57;100.00;100898.73;1615564;87;21142;-83
2022/06/06 03:15:14;;;;;;;5.45;4.95;;;;;;;14.68;100.00;100898.66;1598521;88;21705;-84
2022/06/06 03:21:22;;;;;;;6.00;4.70;;;;;;;14.87;100.00;100904.87;1568239;90;21106;-87
2022/06/06 03:24:04;;;;;;;6.35;4.50;;;;;;;14.94;100.00;100902.09;1540197;93;21121;-85
2022/06/06 03:26:54;;;;;;;8.58;5.05;;;;;;;15.02;100.00;100901.37;1559671;91;21797;-84
2022/06/06 03:30:06;;;;;;;6.10;4.50;;;;;;;15.09;100.00;100902.02;1593376;89;21034;-85
2022/06/06 03:32:53;;;;;;;6.50;4.80;;;;;;;15.18;100.00;100898.22;1598507;88;21049;-84
2022/06/06 03:35:34;;;;;;;6.33;4.30;;;;;;;15.28;100.00;100902.95;1568287;90;21108;-84
2022/06/06 03:38:27;;;;;;;8.38;4.97;;;;;;;15.37;100.00;100911.81;1543056;91;20991;-84
2022/06/06 03:41:20;;;;;;;6.15;4.58;;;;;;;15.43;100.00;100908.63;1559749;92;21191;-84
2022/06/06 03:44:07;;;;;;;5.03;4.53;;;;;;;15.51;100.00;100909.21;1555907;92;21038;-84
2022/06/06 03:46:55;;;;;;;6.20;4.45;;;;;;;15.59;100.00;100912.81;1593894;89;21046;-84
2022/06/06 03:49:50;;;;;;;5.20;4.70;;;;;;;15.68;100.00;100920.80;1593890;90;21045;-84
2022/06/06 03:52:43;;;;;;;6.47;4.50;;;;;;;15.75;100.00;100918.77;1598173;88;21049;-84
2022/06/06 03:55:43;;;;;;;6.37;4.67;;;;;;;15.85;100.00;100919.27;1566245;91;21186;-84
2022/06/06 03:58:15;;;;;;;8.50;4.33;;;;;;;15.95;100.00;100914.82;1558317;92;21088;-84
2022/06/06 04:00:45;;;;;;;5.12;4.53;;;;;;;16.05;100.00;100915.63;1591302;89;21033;-86
2022/06/06 04:03:14;;;;;;;4.70;4.25;;;;;;;16.15;100.00;100915.58;1593918;89;21080;-84
2022/06/06 04:05:45;;;;;;;4.60;4.20;;;;;;;16.22;100.00;100917.15;1598252;89;21120;-83
2022/06/06 04:08:13;;;;;;;4.33;3.92;;;;;;;16.29;100.00;100918.22;1567938;91;21199;-85
2022/06/06 04:10:51;;;;;;;6.30;4.33;;;;;;;16.39;100.00;100923.42;1559764;91;21125;-83
2022/06/06 04:13:36;;;;;;;5.20;4.45;;;;;;;16.48;100.00;100915.13;1527768;92;21900;-85
2022/06/06 04:16:31;;;;;;;4.17;3.77;;;;;;;16.59;100.00;100920.67;1617655;85;21079;-85
2022/06/06 04:19:05;;;;;;;6.40;4.20;;;;;;;16.70;100.00;100914.72;1651077;87;20953;-85
2022/06/06 04:21:51;;;;;;;6.30;4.33;;;;;;;16.81;100.00;100917.65;1649066;87;21280;-84
2022/06/06 04:24:40;;;;;;;4.80;4.05;;;;;;;16.93;100.00;100918.29;1640805;86;21679;-84
2022/06/06 04:27:22;;;;;;;4.87;4.08;;;;;;;17.06;100.00;100920.55;1649507;86;21075;-84
2022/06/06 04:30:04;;;;;;;5.83;4.00;;;;;;;17.18;100.00;100917.20;1637461;87;21058;-84
2022/06/06 04:32:58;;;;;;;6.47;4.30;;;;;;;17.30;100.00;100920.42;1631700;87;21559;-85
2022/06/06 04:35:33;;;;;;;7.03;3.55;;;;;;;17.40;100.00;100926.91;1634754;87;21143;-84
2022/06/06 04:38:48;;;;;;;6.00;3.77;;;;;;;17.49;100.00;100924.67;1631754;87;22248;-84
2022/06/06 04:41:35;;;;;;;5.78;4.10;;;;;;;17.58;100.00;100934.30;1635367;87;21091;-84
2022/06/06 04:44:42;;;;;;;5.53;4.00;;;;;;;17.69;100.00;100934.53;1633331;87;21086;-85
2022/06/06 04:47:17;;;;;;;6.28;3.87;;;;;;;17.77;100.00;100933.27;1639216;87;21089;-84
2022/06/06 04:49:46;;;;;;;5.95;3.50;;;;;;;17.88;100.00;100940.55;1634513;87;21151;-85
2022/06/06 04:52:14;;;;;;;5.45;3.72;;;;;;;17.92;100.00;100938.77;1640598;87;21528;-86
2022/06/06 04:54:46;;;;;;;3.90;3.50;;;;;;;18.03;100.00;100944.29;1640481;87;21024;-84
2022/06/06 04:57:15;;;;;;;4.15;3.22;;;;;;;18.12;100.00;100943.36;1640598;87;21082;-86
2022/06/06 04:59:45;;;;;;;4.30;3.90;;;;;;;18.25;100.00;100937.66;1640468;87;21066;-84
2022/06/06 05:02:12;;;;;;;4.78;3.90;;;;;;;18.40;100.00;100937.89;1640700;87;21078;-83
2022/06/06 05:04:39;;;;;;;4.95;3.60;;;;;;;18.52;100.00;100937.11;1640560;87;21730;-84
2022/06/06 05:07:33;;;;;;;3.92;3.50;;;;;;;18.64;100.00;100936.32;1640909;87;21471;-83
2022/06/06 05:10:42;;;;;;;4.40;3.52;;;;;;;18.75;100.00;100943.10;1640607;87;21107;-85
2022/06/06 05:13:45;;;;;;;5.00;3.77;;;;;;;18.87;100.00;100941.80;1635643;86;21084;-84
2022/06/06 05:16:42;;;;;;;4.05;3.65;;;;;;;19.04;100.00;100941.38;1647187;86;21119;-84
2022/06/06 05:19:30;;;;;;;4.92;4.05;;;;;;;19.20;100.00;100936.59;1642398;86;21017;-84
2022/06/06 05:22:19;;;;;;;4.33;4.00;;;;;;;19.35;100.00;100939.89;1641331;86;21140;-84
2022/06/06 05:24:54;;;;;;;5.75;3.90;;;;;;;19.46;100.00;100948.00;1648271;85;21065;-86
2022/06/06 05:27:38;;;;;;;4.30;3.90;;;;;;;19.60;100.00;100946.48;1650380;85;21109;-85
2022/06/06 05:30:15;;;;;;;6.08;4.10;;;;;;;19.69;100.00;100951.60;1642125;87;21179;-85
2022/06/06 05:32:51;;;;;;;5.25;4.22;;;;;;;19.79;100.00;100950.60;1594450;89;21528;-85
2022/06/06 05:35:49;;;;;;;5.70;3.75;;;;;;;19.88;100.00;100949.60;1594667;89;21097;-84
2022/06/06 05:38:46;;;;;;;5.80;3.60;;;;;;;19.92;100.00;100953.57;1595348;89;21103;-86
2022/06/06 05:41:21;;;;;;;3.95;3.02;;;;;;;20.06;100.00;100953.86;1589086;87;21041;-84
2022/06/06 05:44:40;;;;;;;4.17;3.05;;;;;;;20.17;100.00;100956.95;1543017;92;21188;-86
2022/06/06 05:47:44;;;;;;;4.85;3.05;;;;;;;20.23;100.00;100952.00;1573045;89;21053;-85
2022/06/06 05:50:37;;;;;;;4.30;3.00;;;;;;;20.24;100.00;100949.66;1590473;88;21636;-89
2022/06/06 05:53:18;;;;;;;3.62;3.12;;;;;;;20.27;100.00;100952.78;1590906;89;21089;-86
2022/06/06 05:56:03;;;;;;;4.17;3.08;;;;;;;20.37;100.00;100954.41;1587599;88;21560;-85
2022/06/06 05:58:47;;;;;;;3.50;3.17;;;;;;;20.53;100.00;100949.55;1626372;86;21253;-85
2022/06/06 06:01:22;;;;;;;3.60;3.27;;;;;;;20.62;100.00;100951.98;1626740;86;21060;-84
2022/06/06 06:04:27;;;;;;;4.75;3.30;;;;;;;20.70;100.00;100952.92;1624602;86;21339;-89
2022/06/06 06:07:31;;;;;;;4.05;3.15;;;;;;;20.72;100.00;100959.69;1627103;86;21061;-84
2022/06/06 06:10:19;;;;;;;3.60;3.17;;;;;;;20.76;100.00;100959.71;1637729;86;21060;-85
2022/06/06 06:13:06;;;;;;;3.42;2.58;;;;;;;20.79;100.00;100960.67;1637544;85;21793;-85
2022/06/06 06:15:39;;;;;;;3.87;2.50;;;;;;;20.87;100.00;100966.42;1633701;86;21030;-84
2022/06/06 06:18:28;;;;;;;4.67;2.72;;;;;;;20.93;100.00;100960.42;1631734;86;21083;-86
2022/06/06 06:21:06;;;;;;;2.72;2.40;;;;;;;21.04;100.00;100965.00;1609431;88;21156;-84
2022/06/06 06:23:40;;;;;;;6.12;2.27;;;;;;;21.18;100.00;100966.88;1568727;90;21458;-85
2022/06/06 06:26:07;;;;;;;4.28;2.10;;;;;;;21.30;100.00;100967.28;1569842;90;21158;-84
2022/06/06 06:28:37;;;;;;;3.17;2.20;;;;;;;21.39;100.00;100975.48;1566919;91;21003;-84
2022/06/06 06:31:38;;;;;;;4.83;2.17;;;;;;;21.41;100.00;100970.84;1566928;91;21091;-84
2022/06/06 06:34:40;;;;;;;2.40;2.20;;;;;;;21.42;100.00;100981.77;1562259;91;21111;-85
2022/06/06 06:37:33;;;;;;;2.58;2.02;;;;;;;21.46;100.00;100977.42;1552597;91;21119;-85
2022/06/06 06:40:18;;;;;;;2.25;2.12;;;;;;;21.49;100.00;100977.88;1545892;92;21166;-85
2022/06/06 06:43:05;;;;;;;2.85;2.05;;;;;;;21.53;100.00;100987.62;1547404;91;21585;-84
2022/06/06 06:45:51;;;;;;;1.70;1.60;;;;;;;21.56;100.00;100992.57;1545041;91;21110;-85
2022/06/06 06:48:38;;;;;;;3.00;1.52;;;;;;;21.56;96.59;100993.38;1546024;91;21666;-86
2022/06/06 06:55:01;;;;;;;;;;;;;;;21.58;88.00;100995.91;1564176;89;21230;-84
2022/06/06 06:57:36;;;;;;;5.60;1.75;;;;;;;21.65;86.49;100984.91;1599809;88;20173;-85
2022/06/06 07:00:18;;;;;;;3.72;1.82;;;;;;;21.70;98.53;100980.39;1599614;89;21069;-85
2022/06/06 07:09:37;;;;;;;4.20;2.17;;;;;;;22.05;89.60;100990.81;1592689;90;21251;-85
2022/06/06 07:12:21;;;;;;;2.02;1.90;;;;;;;22.17;96.79;100992.98;1598313;89;21061;-89
2022/06/06 07:15:20;;;;;;;2.40;2.15;;;;;;;22.36;95.26;100988.95;1598711;89;21069;-84
2022/06/06 07:17:53;;;;;;;3.50;2.10;;;;;;;22.45;93.83;100991.05;1619242;87;21074;-84
2022/06/06 07:20:20;;;;;;;;;;;;;;;22.48;99.98;100986.68;1601821;87;21058;-85
2022/06/06 07:23:02;;;;;;;4.40;2.20;;;;;;;22.56;95.88;100985.77;1607767;87;21792;-84
2022/06/06 07:25:38;;;;;;;2.47;2.20;;;;;;;22.63;97.13;100994.14;1597786;88;21073;-84
2022/06/06 07:28:09;;;;;;;2.40;2.00;;;;;;;22.71;91.51;100999.02;1601480;88;21162;-84
2022/06/06 07:30:49;;;;;;;2.27;2.08;;;;;;;22.69;93.45;100997.38;1600209;89;21130;-87
2022/06/06 07:33:53;;;;;;;2.55;1.98;;;;;;;22.69;94.27;100995.20;1571365;89;21129;-84
2022/06/06 07:36:52;;;;;;;3.00;2.62;;;;;;;22.72;98.96;100986.04;1605736;87;21222;-84
2022/06/06 07:39:39;;;;;;;4.90;2.05;;;;;;;22.81;97.56;100984.92;1600544;87;21021;-84
2022/06/06 07:42:27;;;;;;;4.37;1.90;;;;;;;22.90;86.11;100977.17;1596019;88;21102;-84
2022/06/06 07:45:02;;;;;;;1.90;1.77;;;;;;;22.91;89.45;100982.80;1605623;87;21085;-85
2022/06/06 07:47:51;;;;;;;2.20;2.00;;;;;;;22.93;93.85;100985.25;1599452;88;21121;-84
2022/06/06 07:50:39;;;;;;;2.98;1.60;;;;;;;22.88;94.08;100985.81;1593231;88;21178;-85
2022/06/06 07:53:33;;;;;;;2.10;1.98;;;;;;;22.85;90.69;100988.87;1596979;89;21648;-85
2022/06/06 07:56:32;;;;;;;3.30;1.75;;;;;;;22.87;86.38;100991.32;1589438;88;21081;-88
2022/06/06 07:59:38;;;;;;;1.70;1.60;;;;;;;22.98;84.70;100990.32;1599282;87;21060;-88
2022/06/06 08:02:40;;;;;;;1.42;1.32;;;;;;;23.18;78.60;100995.55;1596596;88;21594;-85
2022/06/06 08:05:43;;;;;;;3.33;1.50;;;;;;;23.36;64.59;100991.94;1605584;88;21149;-85
2022/06/06 08:08:21;;;;;;;1.37;1.05;;;;;;;23.41;70.58;100992.70;1585182;90;21531;-86
2022/06/06 08:10:48;;;;;;;1.00;1.00;;;;;;;23.47;65.74;100978.64;1609588;87;21152;-84
2022/06/06 08:13:53;;;;;;;3.15;1.40;;;;;;;23.53;68.63;100984.51;1598053;87;21607;-84
2022/06/06 08:16:29;;;;;;;2.67;1.20;;;;;;;23.60;66.82;100976.08;1578884;89;21081;-84
2022/06/06 08:19:22;;;;;;;1.37;1.27;;;;;;;23.69;57.38;100983.91;1598598;87;21249;-87
2022/06/06 08:21:50;;;;;;;1.32;1.22;;;;;;;23.71;57.81;100976.57;1604844;87;21068;-84
2022/06/06 08:24:45;;;;;;;1.72;1.10;;;;;;;23.82;55.07;100977.86;1565810;89;21054;-84
2022/06/06 08:27:16;;;;;;;3.10;1.00;;;;;;;23.83;52.01;100977.69;1566360;89;21092;-84
2022/06/06 08:29:46;;;;;;;1.85;1.00;;;;;;;23.90;51.15;100979.05;1592422;89;20985;-85
2022/06/06 08:32:15;;;;;;;2.60;1.20;;;;;;;23.99;51.79;100987.22;1589919;89;21202;-87
2022/06/06 08:34:42;;;;;;;1.60;1.27;;;;;;;24.06;49.32;100972.12;1597538;87;21052;-87
2022/06/06 08:37:51;;;;;;;1.42;1.20;;;;;;;24.16;51.26;100966.42;1600034;87;21643;-84
2022/06/06 08:40:56;;;;;;;1.45;1.10;;;;;;;24.23;53.55;100980.61;1590633;88;21080;-86
2022/06/06 08:43:44;;;;;;;1.17;1.07;;;;;;;24.22;51.02;100978.12;1605366;88;21624;-84
2022/06/06 08:46:32;;;;;;;2.12;0.93;;;;;;;24.22;52.12;100978.97;1594552;88;21962;-84
2022/06/06 08:52:39;;;;;;;1.95;1.10;;;;;;;24.44;48.39;100976.70;1576855;89;21153;-86
2022/06/06 08:55:39;;;;;;;1.40;1.30;;;;;;;24.47;50.61;100973.14;1600003;88;21551;-84
2022/06/06 08:58:48;;;;;;;2.77;1.22;;;;;;;24.53;48.98;100971.50;1594559;87;21743;-84
2022/06/06 09:01:43;;;;;;;1.42;1.25;;;;;;;24.48;47.76;100979.27;1590109;89;21869;-85
2022/06/06 09:04:54;;;;;;;1.45;1.20;;;;;;;24.36;47.83;100979.83;1596199;88;21119;-85
2022/06/06 09:07:27;;;;;;;1.20;1.20;;;;;;;24.34;48.27;100973.06;1598439;88;21087;-84
2022/06/06 09:10:25;;;;;;;1.77;1.10;;;;;;;24.38;50.07;100974.33;1577500;89;21252;-84
2022/06/06 09:13:20;;;;;;;1.52;1.42;;;;;;;24.41;50.67;100968.59;1593973;87;21064;-84
2022/06/06 09:16:28;;;;;;;1.40;1.30;;;;;;;24.36;49.41;100965.19;1602014;87;21202;-83
2022/06/06 09:19:33;;;;;;;1.82;1.40;;;;;;;24.45;49.39;100967.19;1596486;89;20991;-84
2022/06/06 09:22:12;;;;;;;2.17;1.37;;;;;;;24.61;50.44;100973.98;1636864;84;21071;-84
2022/06/06 09:25:30;;;;;;;2.22;1.52;;;;;;;24.75;47.96;100977.55;1603501;87;21038;-84
2022/06/06 09:28:39;;;;;;;1.70;1.40;;;;;;;24.82;49.02;100967.73;1636194;86;21050;-85
2022/06/06 09:31:31;;;;;;;2.45;1.62;;;;;;;25.04;48.24;100974.20;1642784;86;21272;-85
2022/06/06 09:34:27;;;;;;;1.67;1.17;;;;;;;25.17;46.44;100962.25;1616181;87;21104;-85
2022/06/06 09:37:18;;;;;;;1.42;1.30;;;;;;;25.24;47.93;100957.44;1647535;86;21006;-83
2022/06/06 09:40:20;;;;;;;1.85;1.40;;;;;;;25.36;48.56;100962.45;1606231;88;25997;-84
2022/06/06 09:43:11;;;;;;;1.27;1.17;;;;;;;25.41;50.96;100956.53;1627529;87;21079;-84
2022/06/06 09:46:10;;;;;;;1.75;1.30;;;;;;;25.41;50.58;100956.03;1621243;87;22164;-84
2022/06/06 09:49:02;;;;;;;2.00;1.37;;;;;;;25.37;49.03;100961.42;1606847;88;21121;-85
2022/06/06 09:51:56;;;;;;;3.80;1.22;;;;;;;25.40;48.15;100963.72;1608044;87;21038;-84
2022/06/06 10:01:04;;;;;;;2.12;1.60;;;;;;;25.16;47.69;100953.95;1630893;87;21263;-85
2022/06/06 10:04:29;;;;;;;1.57;1.47;;;;;;;25.20;52.98;100951.70;1604775;87;20966;-83
2022/06/06 10:07:12;;;;;;;1.60;1.50;;;;;;;25.28;47.94;100953.35;1592083;89;21065;-85
2022/06/06 10:10:08;;;;;;;1.65;1.32;;;;;;;25.39;47.07;100943.95;1637971;86;21094;-84
2022/06/06 10:13:05;;;;;;;3.65;1.20;;;;;;;25.45;50.49;100939.12;1600381;89;20987;-84
2022/06/06 10:15:59;;;;;;;1.10;1.10;;;;;;;25.51;49.86;100951.12;1636812;86;21190;-84
2022/06/06 10:18:58;;;;;;;4.65;1.20;;;;;;;25.51;45.53;100947.61;1598642;88;21053;-84
2022/06/06 10:21:50;;;;;;;1.35;1.25;;;;;;;25.50;44.96;100948.14;1594133;89;21061;-85
2022/06/06 10:24:45;;;;;;;1.25;1.20;;;;;;;25.62;48.22;100939.49;1600796;88;21156;-83
2022/06/06 10:27:50;;;;;;;2.20;2.00;;;;;;;25.75;49.86;100938.16;1612221;88;21138;-83
2022/06/06 10:30:50;;;;;;;13.83;3.15;;;;;;;25.91;47.99;100938.20;1604749;87;21173;-84
2022/06/06 10:33:45;;;;;;;1.47;1.30;;;;;;;25.94;45.76;100935.63;1654086;85;21555;-83
2022/06/06 10:36:36;;;;;;;4.67;1.90;;;;;;;25.93;47.22;100925.98;1637928;86;21058;-84
2022/06/06 10:39:30;;;;;;;;;;;;;;;25.96;47.30;100925.57;1653564;84;21114;-83
2022/06/06 10:42:34;;;;;;;4.25;1.57;;;;;;;25.92;44.95;100931.04;1650915;85;20154;-84
2022/06/06 10:45:18;;;;;;;7.92;1.77;;;;;;;25.75;44.98;100924.82;1631817;87;21832;-84
2022/06/06 10:48:25;;;;;;;1.67;1.30;;;;;;;25.66;46.21;100919.41;1604977;88;21562;-84
2022/06/06 10:54:24;;;;;;;2.52;1.50;;;;;;;25.53;46.52;100915.41;1613964;87;21145;-86
2022/06/06 10:57:17;;;;;;;8.50;2.02;;;;;;;25.63;45.56;100919.31;1601417;87;21034;-84
2022/06/06 11:00:04;;;;;;;2.80;1.37;;;;;;;25.80;44.03;100914.83;1603928;86;21120;-84
2022/06/06 11:03:07;;;;;;;6.97;1.85;;;;;;;25.85;45.09;100922.21;1614329;87;21062;-84
2022/06/06 11:06:03;;;;;;;3.10;1.80;;;;;;;25.95;45.27;100914.09;1648561;85;21039;-85
2022/06/06 11:09:17;;;;;;;4.20;1.70;;;;;;;25.93;45.03;100918.81;1636877;86;21093;-81
2022/06/06 11:12:32;;;;;;;14.98;4.00;;;;;;;25.82;48.70;100922.12;1603620;88;21090;-80
2022/06/06 11:15:03;;;;;;;3.17;1.80;;;;;;;25.68;44.51;100915.99;1599853;89;21104;-80
2022/06/06 11:17:54;;;;;;;10.90;2.63;;;;;;;25.62;47.10;100918.16;1606203;88;21051;-81
2022/06/06 11:20:48;;;;;;;2.15;1.62;;;;;;;25.61;46.80;100917.36;1584566;89;21086;-81
2022/06/06 11:23:32;;;;;;;1.32;1.30;;;;;;;25.63;45.18;100914.48;1588049;88;21111;-81
2022/06/06 11:26:30;;;;;;;3.83;1.45;;;;;;;25.61;44.25;100911.19;1619191;87;21077;-84
2022/06/06 11:29:18;;;;;;;3.65;1.57;;;;;;;25.64;44.52;100905.45;1609916;88;21128;-81
2022/06/06 11:32:24;;;;;;;1.45;1.35;;;;;;;25.74;46.36;100894.34;1639599;85;21101;-81
2022/06/06 11:35:22;;;;;;;5.42;1.67;;;;;;;25.93;46.74;100899.30;1631415;87;21078;-81
2022/06/06 11:38:32;;;;;;;1.55;1.45;;;;;;;26.08;46.63;100901.23;1604061;88;21579;-81
2022/06/06 11:41:19;;;;;;;2.65;1.40;;;;;;;26.03;46.86;100902.89;1605265;88;21083;-81
2022/06/06 11:44:15;;;;;;;1.35;1.25;;;;;;;26.02;44.80;100894.05;1607348;87;21174;-81
2022/06/06 11:47:10;;;;;;;2.25;1.40;;;;;;;26.02;45.19;100891.37;1602070;87;20974;-85
2022/06/06 11:50:11;;;;;;;2.90;1.40;;;;;;;26.03;45.06;100889.02;1617828;87;22098;-83
2022/06/06 11:53:05;;;;;;;;;;;;;;;26.06;45.32;100880.60;1606276;87;21117;-82
2022/06/06 11:56:00;;;;;;;2.55;1.50;;;;;;;26.08;43.31;100883.08;1602302;88;20144;-85
2022/06/06 11:58:50;;;;;;;2.95;1.30;;;;;;;26.04;43.03;100877.32;1600633;88;21742;-83
2022/06/06 12:01:56;;;;;;;1.52;1.35;;;;;;;26.10;44.87;100877.02;1587850;89;21632;-84
2022/06/06 12:05:12;;;;;;;1.72;1.40;;;;;;;26.24;44.73;100879.12;1607004;87;21069;-83
2022/06/06 12:08:25;;;;;;;2.05;1.55;;;;;;;26.40;43.29;100865.24;1639804;86;21081;-82
2022/06/06 12:11:32;;;;;;;2.37;1.30;;;;;;;26.48;42.91;100870.86;1631491;87;21049;-82
2022/06/06 12:14:16;;;;;;;4.67;1.30;;;;;;;26.30;45.22;100867.05;1604690;87;21245;-82
2022/06/06 12:17:04;;;;;;;3.30;1.47;;;;;;;26.22;42.28;100873.97;1602127;88;21045;-82
2022/06/06 12:19:46;;;;;;;3.45;1.72;;;;;;;26.08;44.07;100872.41;1591778;88;21123;-82
2022/06/06 12:22:38;;;;;;;1.55;1.45;;;;;;;25.95;45.27;100868.75;1653769;85;21030;-83
2022/06/06 12:25:46;;;;;;;1.60;1.50;;;;;;;25.91;45.77;100869.38;1616281;87;21556;-84
2022/06/06 12:28:34;;;;;;;3.83;1.20;;;;;;;25.94;44.49;100871.11;1644102;86;21896;-83
2022/06/06 12:31:37;;;;;;;4.72;1.72;;;;;;;26.05;43.22;100874.96;1652295;84;21021;-83
2022/06/06 12:34:33;;;;;;;3.10;1.50;;;;;;;26.17;42.33;100875.64;1614615;87;21081;-83
2022/06/06 12:37:20;;;;;;;1.47;1.37;;;;;;;26.35;44.14;100866.41;1623189;86;21196;-83
2022/06/06 12:40:12;;;;;;;3.15;1.57;;;;;;;26.54;46.02;100861.98;1627474;86;21549;-83
2022/06/06 12:43:29;;;;;;;6.37;1.50;;;;;;;26.71;44.12;100866.30;1623372;87;21267;-84
2022/06/06 12:46:20;;;;;;;1.57;1.35;;;;;;;26.79;42.15;100871.09;1621176;87;21009;-85
2022/06/06 12:49:28;;;;;;;5.60;1.62;;;;;;;26.80;43.80;100870.06;1598516;88;21653;-88
2022/06/06 12:52:20;;;;;;;3.12;1.42;;;;;;;26.83;41.70;100857.59;1637250;86;21976;-83
2022/06/06 12:58:12;;;;;;;6.72;1.37;;;;;;;27.01;42.23;100854.98;1587996;88;21199;-84
2022/06/06 13:03:53;;;;;;;3.42;1.30;;;;;;;26.76;41.76;100860.34;1621296;87;21580;-87
2022/06/06 13:06:49;;;;;;;1.57;1.42;;;;;;;26.68;41.25;100852.03;1617806;87;21143;-84
2022/06/06 13:09:46;;;;;;;1.85;1.50;;;;;;;26.73;42.52;100856.72;1621146;87;20985;-84
2022/06/06 13:12:50;;;;;;;1.92;1.32;;;;;;;26.88;40.97;100860.45;1627331;87;21239;-84
2022/06/06 13:15:44;;;;;;;1.62;1.40;;;;;;;26.98;41.66;100858.61;1617708;87;21083;-83
2022/06/06 13:18:47;;;;;;;5.50;1.40;;;;;;;26.89;41.66;100856.72;1615005;88;21068;-89
2022/06/06 13:21:34;;;;;;;1.27;1.17;;;;;;;26.89;41.23;100866.06;1637540;86;21036;-83
2022/06/06 13:24:50;;;;;;;1.35;1.25;;;;;;;26.84;41.62;100857.37;1643295;85;21091;-86
2022/06/06 13:27:23;;;;;;;1.95;1.32;;;;;;;26.81;42.21;100850.31;1611990;87;21319;-91